sensor_id;sensor_type;location;lat;lon;timestamp;pressure;altitude;pressure_sealevel;temperature;humidity
57056;BME280;42945;51.718;5.324;2023-05-25T00:01:16;102146.63;;;7.36;100.00
57056;BME280;42945;51.718;5.324;2023-05-25T00:03:42;102275.09;;;8.12;100.00
57056;BME280;42945;51.718;5.324;2023-05-25T00:06:10;102419.91;;;8.74;100.00
57056;BME280;42945;51.718;5.324;2023-05-25T00:08:37;102376.88;;;8.67;100.00
57056;BME280;42945;51.718;5.324;2023-05-25T00:11:04;102257.84;;;7.97;100.00
57056;BME280;42945;51.718;5.324;2023-05-25T00:13:29;102491.63;;;9.34;100.00
57056;BME280;42945;51.718;5.324;2023-05-25T00:15:54;102424.50;;;8.67;100.00
57056;BME280;42945;51.718;5.324;2023-05-25T00:18:20;102278.97;;;7.99;100.00
57056;BME280;42945;51.718;5.324;2023-05-25T00:20:45;102406.22;;;8.57;100.00
57056;BME280;42945;51.718;5.324;2023-05-25T00:23:11;102344.53;;;8.56;100.00
57056;BME280;42945;51.718;5.324;2023-05-25T00:25:37;102407.00;;;8.62;100.00
57056;BME280;42945;51.718;5.324;2023-05-25T00:28:02;102392.16;;;8.55;100.00
57056;BME280;42945;51.718;5.324;2023-05-25T00:30:28;102324.88;;;7.93;100.00
57056;BME280;42945;51.718;5.324;2023-05-25T00:32:54;102414.16;;;8.57;100.00
57056;BME280;42945;51.718;5.324;2023-05-25T00:35:19;102253.81;;;7.81;100.00
57056;BME280;42945;51.718;5.324;2023-05-25T00:37:45;102337.88;;;8.41;100.00
57056;BME280;42945;51.718;5.324;2023-05-25T00:40:13;102334.91;;;7.77;100.00
57056;BME280;42945;51.718;5.324;2023-05-25T00:42:39;102412.78;;;8.42;100.00
57056;BME280;42945;51.718;5.324;2023-05-25T00:45:05;102400.28;;;8.47;100.00
57056;BME280;42945;51.718;5.324;2023-05-25T00:47:32;102281.16;;;7.80;100.00
57056;BME280;42945;51.718;5.324;2023-05-25T00:49:57;102409.31;;;8.37;100.00
57056;BME280;42945;51.718;5.324;2023-05-25T00:52:22;102412.13;;;8.29;100.00
57056;BME280;42945;51.718;5.324;2023-05-25T00:54:50;102416.91;;;8.13;100.00
57056;BME280;42945;51.718;5.324;2023-05-25T00:57:19;102439.50;;;8.26;100.00
57056;BME280;42945;51.718;5.324;2023-05-25T00:59:50;102282.72;;;7.48;100.00
57056;BME280;42945;51.718;5.324;2023-05-25T01:02:18;102416.19;;;8.06;100.00
57056;BME280;42945;51.718;5.324;2023-05-25T01:04:52;104202.00;;;18.56;100.00
57056;BME280;42945;51.718;5.324;2023-05-25T01:07:22;102396.09;;;7.98;100.00
57056;BME280;42945;51.718;5.324;2023-05-25T01:10:03;102391.38;;;8.12;100.00
57056;BME280;42945;51.718;5.324;2023-05-25T01:12:32;102413.78;;;7.94;100.00
57056;BME280;42945;51.718;5.324;2023-05-25T01:15:00;102395.16;;;8.00;100.00
57056;BME280;42945;51.718;5.324;2023-05-25T01:17:26;102353.69;;;7.20;100.00
57056;BME280;42945;51.718;5.324;2023-05-25T01:19:53;102359.78;;;7.23;100.00
57056;BME280;42945;51.718;5.324;2023-05-25T01:22:27;102448.09;;;7.96;100.00
57056;BME280;42945;51.718;5.324;2023-05-25T01:25:01;102420.88;;;7.92;100.00
57056;BME280;42945;51.718;5.324;2023-05-25T01:27:29;102431.41;;;7.94;100.00
57056;BME280;42945;51.718;5.324;2023-05-25T01:29:58;102430.78;;;7.81;100.00
57056;BME280;42945;51.718;5.324;2023-05-25T01:32:24;102450.16;;;7.81;100.00
57056;BME280;42945;51.718;5.324;2023-05-25T01:34:51;102407.19;;;7.73;100.00
57056;BME280;42945;51.718;5.324;2023-05-25T01:37:18;102453.03;;;7.69;100.00
57056;BME280;42945;51.718;5.324;2023-05-25T01:39:47;102420.19;;;7.82;100.00
57056;BME280;42945;51.718;5.324;2023-05-25T01:42:12;102440.50;;;7.79;100.00
57056;BME280;42945;51.718;5.324;2023-05-25T01:44:38;102299.41;;;7.06;100.00
57056;BME280;42945;51.718;5.324;2023-05-25T01:47:21;102341.53;;;7.11;100.00
57056;BME280;42945;51.718;5.324;2023-05-25T01:50:02;102334.81;;;6.96;100.00
57056;BME280;42945;51.718;5.324;2023-05-25T01:52:57;102448.00;;;7.57;100.00
57056;BME280;42945;51.718;5.324;2023-05-25T01:55:24;102460.88;;;7.74;100.00
57056;BME280;42945;51.718;5.324;2023-05-25T01:57:52;102437.50;;;7.54;100.00
57056;BME280;42945;51.718;5.324;2023-05-25T02:00:25;102429.41;;;7.61;100.00
57056;BME280;42945;51.718;5.324;2023-05-25T02:02:52;102478.19;;;7.42;100.00
57056;BME280;42945;51.718;5.324;2023-05-25T02:05:19;102358.00;;;6.77;100.00
57056;BME280;42945;51.718;5.324;2023-05-25T02:07:45;102408.81;;;7.37;100.00
57056;BME280;42945;51.718;5.324;2023-05-25T02:10:10;102362.69;;;6.58;100.00
57056;BME280;42945;51.718;5.324;2023-05-25T02:12:35;102448.47;;;7.30;100.00
57056;BME280;42945;51.718;5.324;2023-05-25T02:15:01;102481.91;;;7.32;100.00
57056;BME280;42945;51.718;5.324;2023-05-25T02:17:27;102433.59;;;7.26;100.00
57056;BME280;42945;51.718;5.324;2023-05-25T02:19:54;102447.97;;;7.10;100.00
57056;BME280;42945;51.718;5.324;2023-05-25T02:22:20;102408.81;;;6.85;100.00
57056;BME280;42945;51.718;5.324;2023-05-25T02:24:46;102396.59;;;6.81;100.00
57056;BME280;42945;51.718;5.324;2023-05-25T02:27:12;102308.63;;;6.34;100.00
57056;BME280;42945;51.718;5.324;2023-05-25T02:29:37;102427.97;;;6.97;100.00
57056;BME280;42945;51.718;5.324;2023-05-25T02:32:03;102425.63;;;6.80;100.00
57056;BME280;42945;51.718;5.324;2023-05-25T02:34:28;102431.56;;;6.93;100.00
57056;BME280;42945;51.718;5.324;2023-05-25T02:36:54;102471.97;;;6.95;100.00
57056;BME280;42945;51.718;5.324;2023-05-25T02:39:19;102310.72;;;6.14;100.00
57056;BME280;42945;51.718;5.324;2023-05-25T02:41:45;102484.25;;;6.96;100.00
57056;BME280;42945;51.718;5.324;2023-05-25T02:44:11;102339.44;;;6.29;100.00
57056;BME280;42945;51.718;5.324;2023-05-25T02:46:36;102487.78;;;6.96;100.00
57056;BME280;42945;51.718;5.324;2023-05-25T02:49:01;102463.19;;;6.94;100.00
57056;BME280;42945;51.718;5.324;2023-05-25T02:51:28;102437.78;;;6.88;100.00
57056;BME280;42945;51.718;5.324;2023-05-25T02:53:53;102454.44;;;6.92;100.00
57056;BME280;42945;51.718;5.324;2023-05-25T02:56:19;102472.84;;;6.94;100.00
57056;BME280;42945;51.718;5.324;2023-05-25T02:58:45;102441.16;;;6.97;100.00
57056;BME280;42945;51.718;5.324;2023-05-25T03:01:10;102380.66;;;6.33;100.00
57056;BME280;42945;51.718;5.324;2023-05-25T03:03:44;102444.88;;;6.86;100.00
57056;BME280;42945;51.718;5.324;2023-05-25T03:06:10;102351.09;;;6.14;100.00
57056;BME280;42945;51.718;5.324;2023-05-25T03:08:37;102461.72;;;6.76;100.00
57056;BME280;42945;51.718;5.324;2023-05-25T03:11:02;102474.59;;;6.96;100.00
57056;BME280;42945;51.718;5.324;2023-05-25T03:13:27;102239.63;;;5.53;100.00
57056;BME280;42945;51.718;5.324;2023-05-25T03:15:52;102520.44;;;6.87;100.00
57056;BME280;42945;51.718;5.324;2023-05-25T03:18:18;102498.34;;;6.96;100.00
57056;BME280;42945;51.718;5.324;2023-05-25T03:20:43;102484.25;;;6.96;100.00
57056;BME280;42945;51.718;5.324;2023-05-25T03:23:09;102500.94;;;6.98;100.00
57056;BME280;42945;51.718;5.324;2023-05-25T03:25:35;102372.78;;;6.31;100.00
57056;BME280;42945;51.718;5.324;2023-05-25T03:28:00;102513.13;;;7.05;100.00
57056;BME280;42945;51.718;5.324;2023-05-25T03:30:26;102481.63;;;6.96;100.00
57056;BME280;42945;51.718;5.324;2023-05-25T03:32:51;102398.38;;;6.22;100.00
57056;BME280;42945;51.718;5.324;2023-05-25T03:35:17;102513.94;;;7.08;100.00
57056;BME280;42945;51.718;5.324;2023-05-25T03:37:42;102481.69;;;6.91;100.00
57056;BME280;42945;51.718;5.324;2023-05-25T03:40:08;102471.06;;;6.96;100.00
57056;BME280;42945;51.718;5.324;2023-05-25T03:42:37;102514.97;;;7.00;100.00
57056;BME280;42945;51.718;5.324;2023-05-25T03:45:02;102496.66;;;6.90;100.00
57056;BME280;42945;51.718;5.324;2023-05-25T03:47:28;102566.63;;;7.13;100.00
57056;BME280;42945;51.718;5.324;2023-05-25T03:49:53;102612.16;;;7.82;100.00
57056;BME280;42945;51.718;5.324;2023-05-25T03:52:20;102483.97;;;7.14;100.00
57056;BME280;42945;51.718;5.324;2023-05-25T03:54:45;102362.97;;;6.41;100.00
57056;BME280;42945;51.718;5.324;2023-05-25T03:57:11;102512.66;;;7.33;100.00
57056;BME280;42945;51.718;5.324;2023-05-25T03:59:36;102499.66;;;7.23;100.00
57056;BME280;42945;51.718;5.324;2023-05-25T04:02:01;102489.94;;;7.25;100.00
57056;BME280;42945;51.718;5.324;2023-05-25T04:04:27;102477.84;;;7.12;100.00
57056;BME280;42945;51.718;5.324;2023-05-25T04:06:54;102478.78;;;7.09;100.00
57056;BME280;42945;51.718;5.324;2023-05-25T04:09:19;102543.69;;;7.20;100.00
57056;BME280;42945;51.718;5.324;2023-05-25T04:11:45;102556.91;;;7.17;100.00
57056;BME280;42945;51.718;5.324;2023-05-25T04:14:10;102492.63;;;7.22;100.00
57056;BME280;42945;51.718;5.324;2023-05-25T04:16:37;102372.53;;;6.48;100.00
57056;BME280;42945;51.718;5.324;2023-05-25T04:19:05;102519.34;;;7.01;100.00
57056;BME280;42945;51.718;5.324;2023-05-25T04:21:30;102556.03;;;7.18;100.00
57056;BME280;42945;51.718;5.324;2023-05-25T04:23:56;102530.47;;;7.21;100.00
57056;BME280;42945;51.718;5.324;2023-05-25T04:26:21;102493.41;;;7.27;100.00
57056;BME280;42945;51.718;5.324;2023-05-25T04:28:47;102396.09;;;6.58;100.00
57056;BME280;42945;51.718;5.324;2023-05-25T04:31:12;102510.88;;;7.35;100.00
57056;BME280;42945;51.718;5.324;2023-05-25T04:33:37;102426.47;;;6.82;100.00
57056;BME280;42945;51.718;5.324;2023-05-25T04:36:06;102526.50;;;7.47;100.00
57056;BME280;42945;51.718;5.324;2023-05-25T04:38:32;102379.84;;;6.82;100.00
57056;BME280;42945;51.718;5.324;2023-05-25T04:40:58;102542.94;;;7.63;100.00
57056;BME280;42945;51.718;5.324;2023-05-25T04:43:26;102519.03;;;7.71;100.00
57056;BME280;42945;51.718;5.324;2023-05-25T04:45:54;102503.16;;;7.74;100.00
57056;BME280;42945;51.718;5.324;2023-05-25T04:48:19;102397.06;;;7.05;100.00
57056;BME280;42945;51.718;5.324;2023-05-25T04:50:45;131278.91;;;176.06;100.00
57056;BME280;42945;51.718;5.324;2023-05-25T04:53:12;102528.44;;;7.85;100.00
57056;BME280;42945;51.718;5.324;2023-05-25T04:55:37;102506.75;;;8.13;100.00
57056;BME280;42945;51.718;5.324;2023-05-25T04:58:03;102530.72;;;8.04;100.00
57056;BME280;42945;51.718;5.324;2023-05-25T05:00:30;102539.28;;;8.17;100.00
57056;BME280;42945;51.718;5.324;2023-05-25T05:02:56;102543.47;;;8.27;100.00
57056;BME280;42945;51.718;5.324;2023-05-25T05:05:21;102524.81;;;8.33;100.00
57056;BME280;42945;51.718;5.324;2023-05-25T05:07:46;102563.47;;;8.40;100.00
57056;BME280;42945;51.718;5.324;2023-05-25T05:10:12;102525.47;;;8.46;100.00
57056;BME280;42945;51.718;5.324;2023-05-25T05:12:38;102533.53;;;8.41;100.00
57056;BME280;42945;51.718;5.324;2023-05-25T05:15:03;102666.03;;;9.12;100.00
57056;BME280;42945;51.718;5.324;2023-05-25T05:17:29;102567.06;;;8.36;100.00
57056;BME280;42945;51.718;5.324;2023-05-25T05:19:55;102465.91;;;7.86;100.00
57056;BME280;42945;51.718;5.324;2023-05-25T05:22:20;102397.97;;;7.93;100.00
57056;BME280;42945;51.718;5.324;2023-05-25T05:24:45;102439.06;;;8.06;100.00
57056;BME280;42945;51.718;5.324;2023-05-25T05:27:14;102525.16;;;8.60;100.00
57056;BME280;42945;51.718;5.324;2023-05-25T05:29:40;102598.69;;;8.86;100.00
57056;BME280;42945;51.718;5.324;2023-05-25T05:32:05;102520.59;;;8.66;100.00
57056;BME280;42945;51.718;5.324;2023-05-25T05:34:32;102559.38;;;9.06;100.00
57056;BME280;42945;51.718;5.324;2023-05-25T05:36:58;102307.44;;;7.86;100.00
57056;BME280;42945;51.718;5.324;2023-05-25T05:39:25;102586.44;;;9.19;100.00
57056;BME280;42945;51.718;5.324;2023-05-25T05:41:50;102573.75;;;9.32;100.00
57056;BME280;42945;51.718;5.324;2023-05-25T05:44:16;102444.28;;;8.87;100.00
57056;BME280;42945;51.718;5.324;2023-05-25T05:46:41;102611.69;;;9.69;100.00
57056;BME280;42945;51.718;5.324;2023-05-25T05:49:06;102458.53;;;8.81;100.00
57056;BME280;42945;51.718;5.324;2023-05-25T05:51:31;102543.41;;;9.80;100.00
57056;BME280;42945;51.718;5.324;2023-05-25T05:53:57;102452.31;;;9.18;100.00
57056;BME280;42945;51.718;5.324;2023-05-25T05:56:22;102522.88;;;9.54;100.00
57056;BME280;42945;51.718;5.324;2023-05-25T05:58:47;102514.31;;;9.77;100.00
57056;BME280;42945;51.718;5.324;2023-05-25T06:01:14;102543.53;;;9.75;100.00
57056;BME280;42945;51.718;5.324;2023-05-25T06:03:41;102550.00;;;9.96;100.00
57056;BME280;42945;51.718;5.324;2023-05-25T06:06:07;102556.66;;;10.11;100.00
57056;BME280;42945;51.718;5.324;2023-05-25T06:08:32;102550.13;;;10.23;100.00
57056;BME280;42945;51.718;5.324;2023-05-25T06:10:57;102565.97;;;10.26;100.00
57056;BME280;42945;51.718;5.324;2023-05-25T06:13:23;102477.00;;;9.84;100.00
57056;BME280;42945;51.718;5.324;2023-05-25T06:15:48;102408.06;;;9.86;100.00
57056;BME280;42945;51.718;5.324;2023-05-25T06:18:13;102547.53;;;10.21;100.00
57056;BME280;42945;51.718;5.324;2023-05-25T06:20:38;102512.44;;;10.73;100.00
57056;BME280;42945;51.718;5.324;2023-05-25T06:23:04;102592.22;;;10.96;100.00
57056;BME280;42945;51.718;5.324;2023-05-25T06:25:29;102565.78;;;10.63;100.00
57056;BME280;42945;51.718;5.324;2023-05-25T06:27:55;102377.66;;;10.28;100.00
57056;BME280;42945;51.718;5.324;2023-05-25T06:30:20;102425.38;;;10.57;100.00
57056;BME280;42945;51.718;5.324;2023-05-25T06:32:46;102551.78;;;11.41;100.00
57056;BME280;42945;51.718;5.324;2023-05-25T06:35:11;102418.06;;;10.06;100.00
57056;BME280;42945;51.718;5.324;2023-05-25T06:37:46;102560.78;;;10.82;100.00
57056;BME280;42945;51.718;5.324;2023-05-25T06:40:15;102575.34;;;11.26;100.00
57056;BME280;42945;51.718;5.324;2023-05-25T06:42:41;102558.25;;;11.34;100.00
57056;BME280;42945;51.718;5.324;2023-05-25T06:45:07;102489.38;;;10.75;100.00
57056;BME280;42945;51.718;5.324;2023-05-25T06:47:33;102426.34;;;10.55;100.00
57056;BME280;42945;51.718;5.324;2023-05-25T06:49:59;102549.13;;;11.41;100.00
57056;BME280;42945;51.718;5.324;2023-05-25T06:52:24;102615.97;;;11.82;100.00
57056;BME280;42945;51.718;5.324;2023-05-25T06:54:53;102596.19;;;11.91;100.00
57056;BME280;42945;51.718;5.324;2023-05-25T06:57:18;102664.78;;;12.57;100.00
57056;BME280;42945;51.718;5.324;2023-05-25T06:59:43;102558.44;;;11.80;100.00
57056;BME280;42945;51.718;5.324;2023-05-25T07:02:10;102530.53;;;12.40;100.00
57056;BME280;42945;51.718;5.324;2023-05-25T07:04:36;102476.38;;;11.46;100.00
57056;BME280;42945;51.718;5.324;2023-05-25T07:07:02;102442.53;;;11.76;100.00
57056;BME280;42945;51.718;5.324;2023-05-25T07:09:27;102578.06;;;11.76;100.00
57056;BME280;42945;51.718;5.324;2023-05-25T07:11:52;102561.78;;;12.59;100.00
57056;BME280;42945;51.718;5.324;2023-05-25T07:14:18;102532.75;;;12.53;100.00
57056;BME280;42945;51.718;5.324;2023-05-25T07:16:43;102536.72;;;11.94;100.00
57056;BME280;42945;51.718;5.324;2023-05-25T07:19:11;102545.97;;;12.31;100.00
57056;BME280;42945;51.718;5.324;2023-05-25T07:21:36;102531.28;;;12.44;100.00
57056;BME280;42945;51.718;5.324;2023-05-25T07:24:04;102543.84;;;12.86;100.00
57056;BME280;42945;51.718;5.324;2023-05-25T07:26:30;102486.66;;;12.05;100.00
57056;BME280;42945;51.718;5.324;2023-05-25T07:28:56;102562.59;;;12.61;100.00
57056;BME280;42945;51.718;5.324;2023-05-25T07:31:21;102568.63;;;13.10;100.00
57056;BME280;42945;51.718;5.324;2023-05-25T07:33:46;102444.09;;;11.81;100.00
57056;BME280;42945;51.718;5.324;2023-05-25T07:36:12;102466.38;;;12.02;100.00
57056;BME280;42945;51.718;5.324;2023-05-25T07:38:37;102552.94;;;13.03;100.00
57056;BME280;42945;51.718;5.324;2023-05-25T07:41:02;102484.69;;;12.56;100.00
57056;BME280;42945;51.718;5.324;2023-05-25T07:43:28;102529.06;;;12.33;100.00
57056;BME280;42945;51.718;5.324;2023-05-25T07:45:53;102612.69;;;12.73;100.00
57056;BME280;42945;51.718;5.324;2023-05-25T07:48:18;102529.88;;;13.03;100.00
57056;BME280;42945;51.718;5.324;2023-05-25T07:50:44;102545.41;;;12.92;100.00
57056;BME280;42945;51.718;5.324;2023-05-25T07:53:09;102575.31;;;12.76;100.00
57056;BME280;42945;51.718;5.324;2023-05-25T07:55:35;102427.00;;;12.34;100.00
57056;BME280;42945;51.718;5.324;2023-05-25T07:58:00;102468.41;;;12.19;100.00
57056;BME280;42945;51.718;5.324;2023-05-25T08:00:25;102579.59;;;13.25;100.00
57056;BME280;42945;51.718;5.324;2023-05-25T08:02:51;102561.19;;;13.18;100.00
57056;BME280;42945;51.718;5.324;2023-05-25T08:05:16;102493.56;;;12.56;100.00
57056;BME280;42945;51.718;5.324;2023-05-25T08:07:41;102576.44;;;13.59;100.00
57056;BME280;42945;51.718;5.324;2023-05-25T08:10:07;102518.34;;;12.80;100.00
57056;BME280;42945;51.718;5.324;2023-05-25T08:12:33;102602.28;;;13.35;100.00
57056;BME280;42945;51.718;5.324;2023-05-25T08:14:58;102582.13;;;13.06;100.00
57056;BME280;42945;51.718;5.324;2023-05-25T08:17:24;102579.94;;;13.80;100.00
57056;BME280;42945;51.718;5.324;2023-05-25T08:19:49;102448.41;;;12.97;100.00
57056;BME280;42945;51.718;5.324;2023-05-25T08:22:15;102540.00;;;13.37;100.00
57056;BME280;42945;51.718;5.324;2023-05-25T08:24:40;102575.22;;;13.66;100.00
57056;BME280;42945;51.718;5.324;2023-05-25T08:27:05;102629.47;;;13.43;100.00
57056;BME280;42945;51.718;5.324;2023-05-25T08:29:31;102555.34;;;13.73;100.00
57056;BME280;42945;51.718;5.324;2023-05-25T08:31:56;102455.88;;;13.32;100.00
57056;BME280;42945;51.718;5.324;2023-05-25T08:34:21;102553.88;;;13.87;100.00
57056;BME280;42945;51.718;5.324;2023-05-25T08:36:47;102540.81;;;14.20;100.00
57056;BME280;42945;51.718;5.324;2023-05-25T08:39:12;102544.22;;;14.24;100.00
57056;BME280;42945;51.718;5.324;2023-05-25T08:41:44;102454.31;;;13.47;100.00
57056;BME280;42945;51.718;5.324;2023-05-25T08:44:10;102474.16;;;13.81;100.00
57056;BME280;42945;51.718;5.324;2023-05-25T08:46:38;102697.84;;;14.50;100.00
57056;BME280;42945;51.718;5.324;2023-05-25T08:49:07;102494.28;;;13.04;100.00
57056;BME280;42945;51.718;5.324;2023-05-25T08:51:35;102434.88;;;12.82;100.00
57056;BME280;42945;51.718;5.324;2023-05-25T08:54:06;102447.72;;;13.55;100.00
57056;BME280;42945;51.718;5.324;2023-05-25T08:56:36;102549.06;;;13.95;100.00
57056;BME280;42945;51.718;5.324;2023-05-25T08:59:21;102592.72;;;14.33;100.00
57056;BME280;42945;51.718;5.324;2023-05-25T09:01:52;102585.97;;;14.25;100.00
57056;BME280;42945;51.718;5.324;2023-05-25T09:04:21;102609.84;;;14.67;100.00
57056;BME280;42945;51.718;5.324;2023-05-25T09:06:47;102572.81;;;15.51;100.00
57056;BME280;42945;51.718;5.324;2023-05-25T09:09:13;102191.09;;;13.71;100.00
57056;BME280;42945;51.718;5.324;2023-05-25T09:11:42;102568.03;;;14.68;100.00
57056;BME280;42945;51.718;5.324;2023-05-25T09:17:30;102609.28;;;14.99;100.00
57056;BME280;42945;51.718;5.324;2023-05-25T09:23:18;102806.19;;;16.47;100.00
57056;BME280;42945;51.718;5.324;2023-05-25T09:29:08;102654.44;;;16.12;100.00
57056;BME280;42945;51.718;5.324;2023-05-25T09:38:55;102603.91;;;15.18;100.00
57056;BME280;42945;51.718;5.324;2023-05-25T09:44:44;102463.31;;;14.23;100.00
57056;BME280;42945;51.718;5.324;2023-05-25T09:50:32;102596.19;;;15.65;100.00
57056;BME280;42945;51.718;5.324;2023-05-25T09:56:20;102463.78;;;14.69;100.00
57056;BME280;42945;51.718;5.324;2023-05-25T10:02:11;102628.69;;;15.21;100.00
57056;BME280;42945;51.718;5.324;2023-05-25T10:08:08;102560.94;;;14.86;100.00
57056;BME280;42945;51.718;5.324;2023-05-25T10:13:59;102594.56;;;14.90;100.00
57056;BME280;42945;51.718;5.324;2023-05-25T10:19:58;102514.69;;;13.89;100.00
57056;BME280;42945;51.718;5.324;2023-05-25T10:25:49;102202.28;;;15.79;100.00
57056;BME280;42945;51.718;5.324;2023-05-25T10:31:38;102611.56;;;17.27;100.00
57056;BME280;42945;51.718;5.324;2023-05-25T10:41:26;102570.22;;;16.02;100.00
57056;BME280;42945;51.718;5.324;2023-05-25T10:47:15;102596.72;;;17.05;100.00
57056;BME280;42945;51.718;5.324;2023-05-25T10:53:11;102616.22;;;16.26;100.00
57056;BME280;42945;51.718;5.324;2023-05-25T10:58:59;102624.41;;;16.41;100.00
57056;BME280;42945;51.718;5.324;2023-05-25T11:04:49;102362.16;;;15.74;100.00
57056;BME280;42945;51.718;5.324;2023-05-25T11:11:03;102574.06;;;16.14;100.00
57056;BME280;42945;51.718;5.324;2023-05-25T11:17:11;102574.38;;;16.57;100.00
57056;BME280;42945;51.718;5.324;2023-05-25T11:23:23;102562.09;;;16.37;100.00
57056;BME280;42945;51.718;5.324;2023-05-25T11:29:14;102574.16;;;16.62;100.00
57056;BME280;42945;51.718;5.324;2023-05-25T11:35:05;102383.03;;;15.83;100.00
57056;BME280;42945;51.718;5.324;2023-05-25T11:45:01;102563.56;;;17.38;100.00
57056;BME280;42945;51.718;5.324;2023-05-25T11:51:05;102413.47;;;17.80;99.16
57056;BME280;42945;51.718;5.324;2023-05-25T11:56:55;102527.31;;;18.62;92.65
57056;BME280;42945;51.718;5.324;2023-05-25T12:02:45;102519.31;;;18.33;91.06
57056;BME280;42945;51.718;5.324;2023-05-25T12:08:35;102436.34;;;16.98;94.38
57056;BME280;42945;51.718;5.324;2023-05-25T12:14:24;102488.06;;;17.44;97.50
57056;BME280;42945;51.718;5.324;2023-05-25T12:20:15;102541.72;;;17.44;97.70
57056;BME280;42945;51.718;5.324;2023-05-25T12:26:09;102540.09;;;16.80;100.00
57056;BME280;42945;51.718;5.324;2023-05-25T12:32:02;102525.47;;;17.47;100.00
57056;BME280;42945;51.718;5.324;2023-05-25T12:38:11;102550.41;;;17.34;93.36
57056;BME280;42945;51.718;5.324;2023-05-25T12:47:48;102366.81;;;16.50;95.13
57056;BME280;42945;51.718;5.324;2023-05-25T12:53:49;102510.53;;;16.97;98.73
57056;BME280;42945;51.718;5.324;2023-05-25T12:59:39;102419.66;;;15.99;100.00
57056;BME280;42945;51.718;5.324;2023-05-25T13:05:28;102523.59;;;16.71;100.00
57056;BME280;42945;51.718;5.324;2023-05-25T13:11:15;102523.00;;;16.50;100.00
57056;BME280;42945;51.718;5.324;2023-05-25T13:17:03;102472.44;;;17.22;0.00
57056;BME280;42945;51.718;5.324;2023-05-25T13:22:52;102587.31;;;17.75;95.86
57056;BME280;42945;51.718;5.324;2023-05-25T13:28:41;102507.13;;;17.70;84.38
57056;BME280;42945;51.718;5.324;2023-05-25T13:34:28;102502.69;;;17.24;92.83
57056;BME280;42945;51.718;5.324;2023-05-25T13:40:17;102493.03;;;17.36;96.85
57056;BME280;42945;51.718;5.324;2023-05-25T13:50:07;102586.75;;;18.99;89.05
57056;BME280;42945;51.718;5.324;2023-05-25T13:55:55;102500.63;;;17.88;91.08
57056;BME280;42945;51.718;5.324;2023-05-25T14:01:42;102294.91;;;16.72;89.40
57056;BME280;42945;51.718;5.324;2023-05-25T14:07:30;102466.50;;;17.90;93.20
57056;BME280;42945;51.718;5.324;2023-05-25T14:13:19;102439.41;;;18.91;80.46
57056;BME280;42945;51.718;5.324;2023-05-25T14:19:06;102492.97;;;19.60;74.34
57056;BME280;42945;51.718;5.324;2023-05-25T14:24:55;102491.19;;;17.52;100.00
57056;BME280;42945;51.718;5.324;2023-05-25T14:30:43;102402.50;;;16.34;100.00
57056;BME280;42945;51.718;5.324;2023-05-25T14:36:55;104240.44;;;27.98;98.31
57056;BME280;42945;51.718;5.324;2023-05-25T14:42:42;102465.22;;;18.25;93.41
57056;BME280;42945;51.718;5.324;2023-05-25T14:52:33;102460.31;;;18.32;84.65
57056;BME280;42945;51.718;5.324;2023-05-25T14:58:22;102342.19;;;17.90;81.27
57056;BME280;42945;51.718;5.324;2023-05-25T15:04:10;102480.31;;;18.55;75.02
57056;BME280;42945;51.718;5.324;2023-05-25T15:09:59;102449.06;;;19.46;75.26
57056;BME280;42945;51.718;5.324;2023-05-25T15:15:50;102225.97;;;16.46;80.74
57056;BME280;42945;51.718;5.324;2023-05-25T15:21:41;102483.75;;;17.86;80.00
57056;BME280;42945;51.718;5.324;2023-05-25T15:27:29;102434.44;;;19.76;67.33
57056;BME280;42945;51.718;5.324;2023-05-25T15:33:18;102441.56;;;18.44;83.49
57056;BME280;42945;51.718;5.324;2023-05-25T15:39:06;102392.16;;;17.19;87.87
57056;BME280;42945;51.718;5.324;2023-05-25T15:44:55;102501.84;;;18.26;84.81
57056;BME280;42945;51.718;5.324;2023-05-25T15:54:37;101892.03;;;18.29;82.30
57056;BME280;42945;51.718;5.324;2023-05-25T16:00:26;102476.84;;;18.94;72.49
57056;BME280;42945;51.718;5.324;2023-05-25T16:06:15;102484.97;;;19.20;69.79
57056;BME280;42945;51.718;5.324;2023-05-25T16:12:04;102602.63;;;20.60;65.84
57056;BME280;42945;51.718;5.324;2023-05-25T16:17:53;102238.28;;;18.70;63.31
57056;BME280;42945;51.718;5.324;2023-05-25T16:23:40;102562.88;;;19.87;64.09
57056;BME280;42945;51.718;5.324;2023-05-25T16:29:29;102473.09;;;20.38;60.79
57056;BME280;42945;51.718;5.324;2023-05-25T16:35:18;102418.16;;;21.58;54.29
57056;BME280;42945;51.718;5.324;2023-05-25T16:41:07;102489.06;;;19.25;60.81
57056;BME280;42945;51.718;5.324;2023-05-25T16:46:55;102425.91;;;19.57;61.78
57056;BME280;42945;51.718;5.324;2023-05-25T16:56:38;102332.88;;;17.96;68.41
57056;BME280;42945;51.718;5.324;2023-05-25T17:02:25;102363.66;;;18.17;69.27
57056;BME280;42945;51.718;5.324;2023-05-25T17:08:13;102562.91;;;18.80;69.19
57056;BME280;42945;51.718;5.324;2023-05-25T17:14:02;102424.00;;;18.12;74.97
57056;BME280;42945;51.718;5.324;2023-05-25T17:19:50;102434.81;;;19.06;67.11
57056;BME280;42945;51.718;5.324;2023-05-25T17:25:38;102432.78;;;18.55;69.66
57056;BME280;42945;51.718;5.324;2023-05-25T17:31:27;102455.13;;;19.76;65.81
57056;BME280;42945;51.718;5.324;2023-05-25T17:37:14;102444.66;;;19.58;66.75
57056;BME280;42945;51.718;5.324;2023-05-25T17:43:02;102471.34;;;20.00;63.25
57056;BME280;42945;51.718;5.324;2023-05-25T17:48:49;102471.22;;;18.84;66.16
57056;BME280;42945;51.718;5.324;2023-05-25T17:54:38;102457.28;;;18.50;76.63
57056;BME280;42945;51.718;5.324;2023-05-25T18:00:26;102322.78;;;17.99;70.79
57056;BME280;42945;51.718;5.324;2023-05-25T18:06:14;102451.63;;;19.35;66.63